Observation data for Graham on 12/09/2018      Previous  Date  Next       Current Mesonet Observations  Soil Data  Daily Summary Page  Observations in Plain Language
KGHS 090600Z 30007KT M02/M02 A3029 RMK A01 T10151020  RH  097%=      5-min Rain = 0
KGHS 090605Z 30007KT M02/M02 A3029 RMK A01 T10151020  RH  097%=      5-min Rain = 0
KGHS 090610Z 31008KT M02/M02 A3029 RMK A01 T10151020  RH  097%=      5-min Rain = 0
KGHS 090615Z 31008KT M01/M02 A3029 RMK A01 T10141019  RH  097%=      5-min Rain = 0
KGHS 090620Z 31008KT M01/M02 A3029 RMK A01 T10131019  RH  097%=      5-min Rain = 0
KGHS 090625Z 31009KT M01/M02 A3029 RMK A01 T10121018  RH  097%=      5-min Rain = 0
KGHS 090630Z 31009KT M01/M02 A3029 RMK A01 T10111018  RH  096%=      5-min Rain = 0
KGHS 090635Z 31008KT M01/M02 A303 RMK A01 T10121019  RH  096%=      5-min Rain = 0
KGHS 090640Z 30008KT M01/M02 A303 RMK A01 T10121019  RH  096%=      5-min Rain = 0
KGHS 090645Z 30007KT M01/M02 A303 RMK A01 T10131020  RH  096%=      5-min Rain = 0
KGHS 090650Z 30008KT M01/M02 A303 RMK A01 T10121019  RH  096%=      5-min Rain = 0
KGHS 090655Z 30008KT M01/M02 A3029 RMK A01 T10111018  RH  096%=      5-min Rain = 0
KGHS 090700Z 30009KT M01/M02 A3029 RMK A01 T10101018  RH  095%=      5-min Rain = 0
KGHS 090705Z 30008KT M01/M02 A3029 RMK A01 T10101019  RH  095%=      5-min Rain = 0
KGHS 090710Z 30008KT M01/M02 A3029 RMK A01 T10111020  RH  095%=      5-min Rain = 0
KGHS 090715Z 30008KT M01/M02 A3029 RMK A01 T10121020  RH  095%=      5-min Rain = 0
KGHS 090720Z 30009KT M01/M02 A3029 RMK A01 T10131021  RH  095%=      5-min Rain = 0
KGHS 090725Z 31009KT M01/M02 A3029 RMK A01 T10121020  RH  095%=      5-min Rain = 0
KGHS 090730Z 31009KT M01/M02 A3029 RMK A01 T10121020  RH  095%=      5-min Rain = 0
KGHS 090735Z 31009KT M01/M02 A3028 RMK A01 T10121020  RH  095%=      5-min Rain = 0
KGHS 090740Z 32008KT M01/M02 A3028 RMK A01 T10131021  RH  095%=      5-min Rain = 0
KGHS 090745Z 32009KT M01/M02 A3029 RMK A01 T10141022  RH  095%=      5-min Rain = 0
KGHS 090750Z 32008KT M01/M02 A3029 RMK A01 T10141022  RH  095%=      5-min Rain = 0
KGHS 090755Z 32008KT M02/M02 A3029 RMK A01 T10151022  RH  095%=      5-min Rain = 0
KGHS 090800Z 32009KT M02/M02 A3028 RMK A01 T10151023  RH  095%=      5-min Rain = 0
KGHS 090805Z 32009KT M02/M02 A3028 RMK A01 T10151023  RH  095%=      5-min Rain = 0
KGHS 090810Z 32009KT M02/M02 A3028 RMK A01 T10161023  RH  095%=      5-min Rain = 0
KGHS 090815Z 32009KT M02/M02 A3028 RMK A01 T10171024  RH  096%=      5-min Rain = 0
KGHS 090820Z 32009KT M02/M02 A3028 RMK A01 T10171023  RH  096%=      5-min Rain = 0
KGHS 090825Z 32009KT M02/M02 A3028 RMK A01 T10171023  RH  096%=      5-min Rain = 0
KGHS 090830Z 32010KT M02/M02 A3028 RMK A01 T10171024  RH  096%=      5-min Rain = 0
KGHS 090835Z 32009KT M02/M02 A3028 RMK A01 T10171024  RH  096%=      5-min Rain = 0
KGHS 090840Z 32009KT M02/M02 A3028 RMK A01 T10171024  RH  096%=      5-min Rain = 0
KGHS 090845Z 33009KT M02/M02 A3028 RMK A01 T10171024  RH  096%=      5-min Rain = 0
KGHS 090850Z 33010KT M02/M02 A3028 RMK A01 T10171024  RH  096%=      5-min Rain = 0
KGHS 090855Z 33009KT M02/M02 A3028 RMK A01 T10181024  RH  096%=      5-min Rain = 0
KGHS 090900Z 33009KT M02/M02 A3028 RMK A01 T10171024  RH  096%=      5-min Rain = 0
KGHS 090905Z 33009KT M02/M02 A3028 RMK A01 T10171024  RH  096%=      5-min Rain = 0
KGHS 090910Z 33009KT M02/M03 A3028 RMK A01 T10181025  RH  096%=      5-min Rain = 0
KGHS 090915Z 34010KT M02/M03 A3028 RMK A01 T10191026  RH  096%=      5-min Rain = 0
KGHS 090920Z 34010KT M02/M03 A3028 RMK A01 T10181025  RH  096%=      5-min Rain = 0
KGHS 090925Z 34010KT M02/M03 A3028 RMK A01 T10191026  RH  095%=      5-min Rain = 0
KGHS 090930Z 34010KT M02/M03 A3028 RMK A01 T10191027  RH  095%=      5-min Rain = 0
KGHS 090935Z 33009KT M02/M03 A3028 RMK A01 T10191027  RH  095%=      5-min Rain = 0
KGHS 090940Z 33009KT M02/M03 A3028 RMK A01 T10191027  RH  095%=      5-min Rain = 0
KGHS 090945Z 33009KT M02/M03 A3028 RMK A01 T10191027  RH  095%=      5-min Rain = 0
KGHS 090950Z 33010KT M02/M03 A3028 RMK A01 T10201028  RH  095%=      5-min Rain = 0
KGHS 090955Z 33009KT M02/M03 A3028 RMK A01 T10201028  RH  095%=      5-min Rain = 0
KGHS 091000Z 33009KT M02/M03 A3028 RMK A01 T10191027  RH  095%=      5-min Rain = 0
KGHS 091005Z 34009KT M02/M03 A3028 RMK A01 T10181027  RH  094%=      5-min Rain = 0
KGHS 091010Z 34009KT M02/M03 A3028 RMK A01 T10171027  RH  094%=      5-min Rain = 0
KGHS 091015Z 34009KT M02/M03 A3028 RMK A01 T10171028  RH  093%=      5-min Rain = 0
KGHS 091020Z 34010KT M02/M03 A3028 RMK A01 T10171028  RH  093%=      5-min Rain = 0
KGHS 091025Z 35010KT M02/M03 A3028 RMK A01 T10171028  RH  093%=      5-min Rain = 0
KGHS 091030Z 35010KT M02/M03 A3028 RMK A01 T10181029  RH  093%=      5-min Rain = 0
KGHS 091035Z 35010KT M02/M03 A3028 RMK A01 T10181028  RH  093%=      5-min Rain = 0
KGHS 091040Z 35011KT M02/M03 A3028 RMK A01 T10181028  RH  093%=      5-min Rain = 0
KGHS 091045Z 36011KT M02/M03 A3028 RMK A01 T10161028  RH  092%=      5-min Rain = 0
KGHS 091050Z 36011KT M02/M03 A3028 RMK A01 T10161028  RH  092%=      5-min Rain = 0
KGHS 091055Z 00011KT M02/M03 A3028 RMK A01 T10161028  RH  092%=      5-min Rain = 0
KGHS 091100Z 00011KT M02/M03 A3028 RMK A01 T10161029  RH  092%=      5-min Rain = 0
KGHS 091105Z 00010KT M02/M03 A3028 RMK A01 T10171029  RH  092%=      5-min Rain = 0
KGHS 091110Z 00011KT M02/M03 A3029 RMK A01 T10181030  RH  092%=      5-min Rain = 0
KGHS 091115Z 00012KT M02/M03 A3029 RMK A01 T10191030  RH  092%=      5-min Rain = 0
KGHS 091120Z 01012KT M02/M03 A3029 RMK A01 T10191030  RH  092%=      5-min Rain = 0
KGHS 091125Z 01012KT M02/M03 A3029 RMK A01 T10181030  RH  092%=      5-min Rain = 0
KGHS 091130Z 01012KT M02/M03 A3029 RMK A01 T10181030  RH  092%=      5-min Rain = 0
KGHS 091135Z 00011KT M02/M03 A3029 RMK A01 T10191031  RH  092%=      5-min Rain = 0
KGHS 091140Z 35010KT M02/M03 A3029 RMK A01 T10211033  RH  092%=      5-min Rain = 0
KGHS 091145Z 35010KT M02/M03 A303 RMK A01 T10221033  RH  093%=      5-min Rain = 0
KGHS 091150Z 35011KT M02/M03 A303 RMK A01 T10231033  RH  093%=      5-min Rain = 0
KGHS 091155Z 34010KT M02/M03 A303 RMK A01 T10241034  RH  093%=      5-min Rain = 0
KGHS 091200Z 33010KT M03/M04 A303 RMK A01 T10261035  RH  094%=      5-min Rain = 0
KGHS 091205Z 33010KT M03/M04 A303 RMK A01 T10261036  RH  094%=      5-min Rain = 0
KGHS 091210Z 33009KT M03/M04 A303 RMK A01 T10271036  RH  094%=      5-min Rain = 0
KGHS 091215Z 33009KT M03/M04 A3031 RMK A01 T10271037  RH  094%=      5-min Rain = 0
KGHS 091220Z 32010KT M03/M04 A3031 RMK A01 T10281038  RH  094%=      5-min Rain = 0
KGHS 091225Z 33010KT M03/M04 A3032 RMK A01 T10301039  RH  094%=      5-min Rain = 0
KGHS 091230Z 33010KT M03/M04 A3032 RMK A01 T10301040  RH  094%=      5-min Rain = 0
KGHS 091235Z 32010KT M03/M04 A3032 RMK A01 T10311040  RH  094%=      5-min Rain = 0
KGHS 091240Z 32011KT M03/M04 A3032 RMK A01 T10321041  RH  094%=      5-min Rain = 0
KGHS 091245Z 32011KT M03/M04 A3032 RMK A01 T10331041  RH  094%=      5-min Rain = 0
KGHS 091250Z 33011KT M03/M04 A3032 RMK A01 T10331042  RH  094%=      5-min Rain = 0
KGHS 091255Z 33011KT M03/M04 A3032 RMK A01 T10341042  RH  094%=      5-min Rain = 0
KGHS 091300Z 33010KT M03/M04 A3032 RMK A01 T10341043  RH  094%=      5-min Rain = 0
KGHS 091305Z 33010KT M04/M04 A3032 RMK A01 T10351043  RH  094%=      5-min Rain = 0
KGHS 091310Z 33010KT M04/M04 A3032 RMK A01 T10351044  RH  094%=      5-min Rain = 0
KGHS 091315Z 33010KT M04/M05 A3033 RMK A01 T10371045  RH  095%=      5-min Rain = 0
KGHS 091320Z 33009KT M04/M05 A3033 RMK A01 T10371045  RH  095%=      5-min Rain = 0
KGHS 091325Z 32009KT M04/M05 A3033 RMK A01 T10381046  RH  095%=      5-min Rain = 0
KGHS 091330Z 32010KT M04/M05 A3033 RMK A01 T10391046  RH  095%=      5-min Rain = 0
KGHS 091335Z 32010KT M04/M05 A3034 RMK A01 T10401047  RH  095%=      5-min Rain = 0
KGHS 091340Z 32010KT M04/M05 A3034 RMK A01 T10401048  RH  095%=      5-min Rain = 0
KGHS 091345Z 33010KT M04/M05 A3034 RMK A01 T10411048  RH  095%=      5-min Rain = 0
KGHS 091350Z 33010KT M04/M05 A3034 RMK A01 T10411048  RH  095%=      5-min Rain = 0
KGHS 091355Z 32010KT M04/M05 A3034 RMK A01 T10401048  RH  095%=      5-min Rain = 0
KGHS 091400Z 32010KT M04/M05 A3034 RMK A01 T10391047  RH  095%=      5-min Rain = 0
KGHS 091405Z 32010KT M04/M05 A3035 RMK A01 T10381046  RH  094%=      5-min Rain = 0
KGHS 091410Z 32009KT M04/M05 A3035 RMK A01 T10371045  RH  094%=      5-min Rain = 0
KGHS 091415Z 33009KT M04/M04 A3035 RMK A01 T10351044  RH  094%=      5-min Rain = 0
KGHS 091420Z 33010KT M03/M04 A3035 RMK A01 T10341044  RH  093%=      5-min Rain = 0
KGHS 091425Z 33009KT M03/M04 A3035 RMK A01 T10331043  RH  093%=      5-min Rain = 0
KGHS 091430Z 33009KT M03/M04 A3035 RMK A01 T10321042  RH  093%=      5-min Rain = 0
KGHS 091435Z 32009KT M03/M04 A3035 RMK A01 T10311041  RH  093%=      5-min Rain = 0
KGHS 091440Z 32009KT M03/M04 A3036 RMK A01 T10291040  RH  093%=      5-min Rain = 0
KGHS 091445Z 32009KT M03/M04 A3036 RMK A01 T10271037  RH  093%=      5-min Rain = 0
KGHS 091450Z 32008KT M03/M04 A3036 RMK A01 T10251035  RH  093%=      5-min Rain = 0
KGHS 091455Z 32008KT M02/M03 A3036 RMK A01 T10231034  RH  093%=      5-min Rain = 0
KGHS 091500Z 32008KT M02/M03 A3036 RMK A01 T10211032  RH  092%=      5-min Rain = 0
KGHS 091505Z 32008KT M02/M03 A3037 RMK A01 T10191031  RH  092%=      5-min Rain = 0
KGHS 091510Z 33008KT M02/M03 A3037 RMK A01 T10181031  RH  092%=      5-min Rain = 0
KGHS 091515Z 33007KT M02/M03 A3037 RMK A01 T10161030  RH  091%=      5-min Rain = 0
KGHS 091520Z 33008KT M02/M03 A3037 RMK A01 T10151028  RH  091%=      5-min Rain = 0
KGHS 091525Z 33008KT M01/M03 A3037 RMK A01 T10131027  RH  091%=      5-min Rain = 0
KGHS 091530Z 33008KT M01/M03 A3037 RMK A01 T10121025  RH  091%=      5-min Rain = 0
KGHS 091535Z 33007KT M01/M02 A3038 RMK A01 T10101024  RH  091%=      5-min Rain = 0
KGHS 091540Z 33006KT M01/M02 A3038 RMK A01 T10081022  RH  091%=      5-min Rain = 0
KGHS 091545Z 33006KT M01/M02 A3039 RMK A01 T10071021  RH  090%=      5-min Rain = 0
KGHS 091550Z 32005KT M01/M02 A3039 RMK A01 T10051020  RH  090%=      5-min Rain = 0
KGHS 091555Z 31005KT M00/M02 A3039 RMK A01 T10021019  RH  089%=      5-min Rain = 0
KGHS 091600Z 30005KT M00/M02 A3039 RMK A01 T10011018  RH  089%=      5-min Rain = 0
KGHS 091605Z 30005KT 00/M02 A304 RMK A01 T00011018  RH  088%=      5-min Rain = 0
KGHS 091610Z 32006KT 00/M02 A304 RMK A01 T00021018  RH  087%=      5-min Rain = 0
KGHS 091615Z 32006KT 00/M02 A304 RMK A01 T00041019  RH  085%=      5-min Rain = 0
KGHS 091620Z 33005KT 01/M02 A304 RMK A01 T00061017  RH  085%=      5-min Rain = 0
KGHS 091625Z 33005KT 01/M02 A304 RMK A01 T00071017  RH  084%=      5-min Rain = 0
KGHS 091630Z 33006KT 01/M02 A304 RMK A01 T00081019  RH  083%=      5-min Rain = 0
KGHS 091635Z 32006KT 01/M02 A304 RMK A01 T00101017  RH  083%=      5-min Rain = 0
KGHS 091640Z 32005KT 01/M02 A304 RMK A01 T00131015  RH  082%=      5-min Rain = 0
KGHS 091645Z 32005KT 01/M02 A304 RMK A01 T00141017  RH  081%=      5-min Rain = 0
KGHS 091650Z 32006KT 02/M02 A304 RMK A01 T00151016  RH  080%=      5-min Rain = 0
KGHS 091655Z 34004KT 02/M01 A304 RMK A01 T00171014  RH  081%=      5-min Rain = 0
KGHS 091700Z 33005KT 02/M01 A304 RMK A01 T00191014  RH  079%=      5-min Rain = 0
KGHS 091705Z 33005KT 02/M01 A304 RMK A01 T00201013  RH  079%=      5-min Rain = 0
KGHS 091710Z 00005KT 02/M01 A3039 RMK A01 T00221011  RH  079%=      5-min Rain = 0
KGHS 091715Z 00004KT 03/M01 A3039 RMK A01 T00261012  RH  077%=      5-min Rain = 0
KGHS 091720Z 02004KT 03/M01 A3039 RMK A01 T00271012  RH  076%=      5-min Rain = 0
KGHS 091725Z 01004KT 03/M01 A3039 RMK A01 T00281014  RH  074%=      5-min Rain = 0
KGHS 091730Z 01005KT 03/M02 A3039 RMK A01 T00291015  RH  074%=      5-min Rain = 0
KGHS 091735Z 01006KT 03/M02 A3038 RMK A01 T00291016  RH  073%=      5-min Rain = 0
KGHS 091740Z 01005KT 03/M01 A3039 RMK A01 T00301013  RH  074%=      5-min Rain = 0
KGHS 091745Z 36006KT 03/M02 A3039 RMK A01 T00321015  RH  072%=      5-min Rain = 0
KGHS 091750Z 01006KT 03/M01 A3039 RMK A01 T00341013  RH  072%=      5-min Rain = 0
KGHS 091755Z 01007KT 04/M02 A3039 RMK A01 T00361015  RH  070%=      5-min Rain = 0
KGHS 091800Z 01007KT 04/M02 A3038 RMK A01 T00361016  RH  069%=      5-min Rain = 0
KGHS 091805Z 02006KT 04/M02 A3038 RMK A01 T00371015  RH  069%=      5-min Rain = 0
KGHS 091810Z 01006KT 04/M01 A3038 RMK A01 T00391014  RH  069%=      5-min Rain = 0
KGHS 091815Z 01006KT 04/M01 A3037 RMK A01 T00411012  RH  069%=      5-min Rain = 0
KGHS 091820Z 01007KT 04/M02 A3037 RMK A01 T00421015  RH  067%=      5-min Rain = 0
KGHS 091825Z 03006KT 04/M01 A3037 RMK A01 T00441014  RH  067%=      5-min Rain = 0
KGHS 091830Z 02006KT 05/M02 A3036 RMK A01 T00451018  RH  064%=      5-min Rain = 0
KGHS 091835Z 03006KT 05/M02 A3036 RMK A01 T00461019  RH  063%=      5-min Rain = 0
KGHS 091840Z 02006KT 05/M02 A3036 RMK A01 T00461023  RH  061%=      5-min Rain = 0
KGHS 091845Z 02006KT 05/M03 A3035 RMK A01 T00471028  RH  059%=      5-min Rain = 0
KGHS 091850Z 02003KT 05/M03 A3035 RMK A01 T00481029  RH  058%=      5-min Rain = 0
KGHS 091855Z 01004KT 05/M03 A3035 RMK A01 T00511029  RH  056%=      5-min Rain = 0
KGHS 091900Z 03003KT 05/M03 A3035 RMK A01 T00531026  RH  057%=      5-min Rain = 0
KGHS 091905Z 02002KT 06/M03 A3035 RMK A01 T00551028  RH  055%=      5-min Rain = 0
KGHS 091910Z 03004KT 06/M03 A3034 RMK A01 T00551029  RH  055%=      5-min Rain = 0
KGHS 091915Z 35005KT 06/M03 A3034 RMK A01 T00561028  RH  055%=      5-min Rain = 0
KGHS 091920Z 35003KT 06/M03 A3034 RMK A01 T00571030  RH  054%=      5-min Rain = 0
KGHS 091925Z 35005KT 06/M03 A3034 RMK A01 T00581030  RH  053%=      5-min Rain = 0
KGHS 091930Z 33006KT 06/M03 A3034 RMK A01 T00581032  RH  052%=      5-min Rain = 0
KGHS 091935Z 33003KT 06/M04 A3034 RMK A01 T00581035  RH  052%=      5-min Rain = 0
KGHS 091940Z 34004KT 06/M03 A3034 RMK A01 T00601028  RH  053%=      5-min Rain = 0
KGHS 091945Z 35004KT 06/M02 A3034 RMK A01 T00631024  RH  054%=      5-min Rain = 0
KGHS 091950Z 30005KT 07/M03 A3034 RMK A01 T00651028  RH  052%=      5-min Rain = 0
KGHS 091955Z 32005KT 06/M03 A3034 RMK A01 T00641033  RH  050%=      5-min Rain = 0
KGHS 092000Z 35003KT 06/M03 A3034 RMK A01 T00611031  RH  052%=      5-min Rain = 0
KGHS 092005Z 36004G9KT 06/M03 A3033 RMK A01 T00611031  RH  052%=      5-min Rain = 0.01
KGHS 092010Z 35006KT 06/M03 A3033 RMK A01 T00631027  RH  053%=      5-min Rain = 0
KGHS 092015Z 02003KT 06/M03 A3033 RMK A01 T00621028  RH  053%=      5-min Rain = 0
KGHS 092020Z 30005KT 06/M02 A3033 RMK A01 T00641024  RH  054%=      5-min Rain = 0
KGHS 092025Z 32004KT 07/M02 A3033 RMK A01 T00661023  RH  053%=      5-min Rain = 0
KGHS 092030Z 33005KT 07/M02 A3033 RMK A01 T00661022  RH  054%=      5-min Rain = 0
KGHS 092035Z 34002KT 07/M03 A3033 RMK A01 T00661026  RH  052%=      5-min Rain = 0
KGHS 092040Z 01005KT 07/M02 A3033 RMK A01 T00671020  RH  055%=      5-min Rain = 0
KGHS 092045Z 35007KT 07/M02 A3033 RMK A01 T00651015  RH  057%=      5-min Rain = 0
KGHS 092050Z 01006KT 06/M01 A3033 RMK A01 T00631013  RH  059%=      5-min Rain = 0
KGHS 092055Z 00006KT 06/M02 A3033 RMK A01 T00641015  RH  058%=      5-min Rain = 0
KGHS 092100Z 35006KT 06/M01 A3033 RMK A01 T00631010  RH  060%=      5-min Rain = 0
KGHS 092105Z 34008KT 06/M01 A3033 RMK A01 T00631011  RH  060%=      5-min Rain = 0
KGHS 092110Z 35008KT 06/M01 A3033 RMK A01 T00611012  RH  060%=      5-min Rain = 0
KGHS 092115Z 33006KT 06/M01 A3033 RMK A01 T00631010  RH  060%=      5-min Rain = 0
KGHS 092120Z 33007KT 06/M01 A3033 RMK A01 T00631013  RH  059%=      5-min Rain = 0
KGHS 092125Z 34006KT 06/M01 A3033 RMK A01 T00631012  RH  059%=      5-min Rain = 0
KGHS 092130Z 34005KT 06/M01 A3033 RMK A01 T00641014  RH  058%=      5-min Rain = 0
KGHS 092135Z 31006KT 06/M01 A3033 RMK A01 T00631014  RH  058%=      5-min Rain = 0
KGHS 092140Z 33005KT 06/M02 A3033 RMK A01 T00631016  RH  057%=      5-min Rain = 0
KGHS 092145Z 34006KT 06/M02 A3033 RMK A01 T00631019  RH  056%=      5-min Rain = 0
KGHS 092150Z 33005KT 06/M02 A3033 RMK A01 T00631019  RH  056%=      5-min Rain = 0
KGHS 092155Z 32007KT 06/M02 A3033 RMK A01 T00631022  RH  055%=      5-min Rain = 0
KGHS 092200Z 34006G12KT 06/M02 A3033 RMK A01 T00621020  RH  056%=      5-min Rain = 0
KGHS 092205Z 32006KT 06/M02 A3033 RMK A01 T00631019  RH  056%=      5-min Rain = 0
KGHS 092210Z 32006KT 06/M02 A3033 RMK A01 T00631017  RH  057%=      5-min Rain = 0
KGHS 092215Z 31007KT 06/M02 A3033 RMK A01 T00641018  RH  056%=      5-min Rain = 0
KGHS 092220Z 31006KT 06/M02 A3033 RMK A01 T00621022  RH  056%=      5-min Rain = 0
KGHS 092225Z 33006KT 06/M02 A3033 RMK A01 T00601022  RH  056%=      5-min Rain = 0
KGHS 092230Z 33006KT 06/M02 A3033 RMK A01 T00591023  RH  056%=      5-min Rain = 0
KGHS 092235Z 32005KT 06/M02 A3033 RMK A01 T00601020  RH  057%=      5-min Rain = 0
KGHS 092240Z 33006KT 06/M02 A3033 RMK A01 T00601021  RH  056%=      5-min Rain = 0
KGHS 092245Z 33006KT 06/M02 A3033 RMK A01 T00581020  RH  058%=      5-min Rain = 0
KGHS 092250Z 33007KT 06/M02 A3034 RMK A01 T00571021  RH  058%=      5-min Rain = 0
KGHS 092255Z 34008KT 06/M02 A3034 RMK A01 T00551020  RH  059%=      5-min Rain = 0
KGHS 092300Z 33006KT 05/M02 A3034 RMK A01 T00531021  RH  059%=      5-min Rain = 0
KGHS 092305Z 33007KT 05/M02 A3034 RMK A01 T00521020  RH  060%=      5-min Rain = 0
KGHS 092310Z 33008KT 05/M02 A3034 RMK A01 T00501022  RH  060%=      5-min Rain = 0
KGHS 092315Z 33008KT 05/M02 A3034 RMK A01 T00481023  RH  061%=      5-min Rain = 0
KGHS 092320Z 33007KT 05/M02 A3034 RMK A01 T00451024  RH  061%=      5-min Rain = 0
KGHS 092325Z 33007KT 04/M02 A3034 RMK A01 T00431024  RH  062%=      5-min Rain = 0
KGHS 092330Z 33007KT 04/M02 A3034 RMK A01 T00411024  RH  063%=      5-min Rain = 0
KGHS 092335Z 33007KT 04/M02 A3034 RMK A01 T00381024  RH  064%=      5-min Rain = 0
KGHS 092340Z 33007KT 04/M02 A3034 RMK A01 T00351023  RH  066%=      5-min Rain = 0
KGHS 092345Z 33007KT 03/M02 A3034 RMK A01 T00321023  RH  067%=      5-min Rain = 0
KGHS 092350Z 33007KT 03/M02 A3034 RMK A01 T00301024  RH  068%=      5-min Rain = 0
KGHS 092355Z 33007KT 03/M02 A3034 RMK A01 T00281024  RH  069%=      5-min Rain = 0
KGHS 100000Z 33007KT 03/M02 A3034 RMK A01 T00261024  RH  070%=      5-min Rain = 0
KGHS 100005Z 33008KT 02/M02 A3035 RMK A01 T00241024  RH  071%=      5-min Rain = 0
KGHS 100010Z 33008KT 02/M02 A3035 RMK A01 T00221024  RH  072%=      5-min Rain = 0
KGHS 100015Z 33008KT 02/M02 A3035 RMK A01 T00201024  RH  073%=      5-min Rain = 0
KGHS 100020Z 33007KT 02/M02 A3035 RMK A01 T00191024  RH  074%=      5-min Rain = 0
KGHS 100025Z 33007KT 02/M03 A3035 RMK A01 T00171025  RH  074%=      5-min Rain = 0
KGHS 100030Z 32007KT 02/M03 A3035 RMK A01 T00171026  RH  074%=      5-min Rain = 0
KGHS 100035Z 32006KT 02/M03 A3035 RMK A01 T00161027  RH  074%=      5-min Rain = 0
KGHS 100040Z 33006KT 02/M03 A3035 RMK A01 T00161027  RH  074%=      5-min Rain = 0
KGHS 100045Z 32005KT 02/M03 A3035 RMK A01 T00161028  RH  073%=      5-min Rain = 0
KGHS 100050Z 32005KT 02/M03 A3035 RMK A01 T00161029  RH  073%=      5-min Rain = 0
KGHS 100055Z 32005KT 02/M03 A3035 RMK A01 T00171029  RH  072%=      5-min Rain = 0
KGHS 100100Z 31005KT 02/M03 A3035 RMK A01 T00161031  RH  072%=      5-min Rain = 0
KGHS 100105Z 31004KT 02/M03 A3035 RMK A01 T00161031  RH  072%=      5-min Rain = 0
KGHS 100110Z 30004KT 02/M03 A3034 RMK A01 T00161031  RH  072%=      5-min Rain = 0
KGHS 100115Z 30005KT 02/M03 A3035 RMK A01 T00161029  RH  073%=      5-min Rain = 0
KGHS 100120Z 30005KT 02/M03 A3034 RMK A01 T00161029  RH  073%=      5-min Rain = 0
KGHS 100125Z 31005KT 02/M03 A3035 RMK A01 T00151030  RH  072%=      5-min Rain = 0
KGHS 100130Z 30005KT 01/M03 A3035 RMK A01 T00131028  RH  074%=      5-min Rain = 0
KGHS 100135Z 31005KT 01/M03 A3035 RMK A01 T00121029  RH  075%=      5-min Rain = 0
KGHS 100140Z 30005KT 01/M03 A3035 RMK A01 T00101029  RH  076%=      5-min Rain = 0
KGHS 100145Z 30006KT 01/M03 A3035 RMK A01 T00091030  RH  075%=      5-min Rain = 0
KGHS 100150Z 29006KT 01/M03 A3035 RMK A01 T00091031  RH  075%=      5-min Rain = 0
KGHS 100155Z 28005KT 01/M03 A3035 RMK A01 T00081031  RH  075%=      5-min Rain = 0
KGHS 100200Z 30005KT 01/M03 A3036 RMK A01 T00071031  RH  076%=      5-min Rain = 0
KGHS 100205Z 30005KT 01/M03 A3036 RMK A01 T00061031  RH  077%=      5-min Rain = 0
KGHS 100210Z 31005KT 01/M03 A3037 RMK A01 T00051031  RH  077%=      5-min Rain = 0
KGHS 100215Z 31007KT 00/M03 A3037 RMK A01 T00041030  RH  079%=      5-min Rain = 0
KGHS 100220Z 30007KT 00/M03 A3037 RMK A01 T00021029  RH  080%=      5-min Rain = 0
KGHS 100225Z 30007KT 00/M03 A3037 RMK A01 T00011030  RH  080%=      5-min Rain = 0
KGHS 100230Z 29007KT 00/M03 A3037 RMK A01 T00011030  RH  080%=      5-min Rain = 0
KGHS 100235Z 30007KT 00/M03 A3037 RMK A01 T00011031  RH  079%=      5-min Rain = 0
KGHS 100240Z 30007KT 00/M03 A3037 RMK A01 T00011031  RH  080%=      5-min Rain = 0
KGHS 100245Z 31008KT M00/M03 A3037 RMK A01 T10011030  RH  081%=      5-min Rain = 0
KGHS 100250Z 31008KT M00/M03 A3037 RMK A01 T10011028  RH  083%=      5-min Rain = 0
KGHS 100255Z 31008KT M00/M03 A3037 RMK A01 T10011027  RH  083%=      5-min Rain = 0
KGHS 100300Z 30007KT M00/M03 A3037 RMK A01 T10021027  RH  084%=      5-min Rain = 0
KGHS 100305Z 31008KT M00/M03 A3037 RMK A01 T10021026  RH  084%=      5-min Rain = 0
KGHS 100310Z 31009KT 00/03 A3037 RMK A01 T00-00-25  RH  084%=      5-min Rain = 0
KGHS 100315Z 31009KT 00/M02 A3037 RMK A01 T00011024  RH  084%=      5-min Rain = 0
KGHS 100320Z 31009KT 00/M02 A3037 RMK A01 T00021024  RH  083%=      5-min Rain = 0
KGHS 100325Z 31009KT 00/M02 A3037 RMK A01 T00021024  RH  083%=      5-min Rain = 0
KGHS 100330Z 31009KT 00/M02 A3037 RMK A01 T00021024  RH  083%=      5-min Rain = 0
KGHS 100335Z 31010KT 00/M02 A3037 RMK A01 T00031024  RH  083%=      5-min Rain = 0
KGHS 100340Z 31009KT 00/M03 A3037 RMK A01 T00021026  RH  082%=      5-min Rain = 0
KGHS 100345Z 31010KT 00/M03 A3037 RMK A01 T00021026  RH  082%=      5-min Rain = 0
KGHS 100350Z 31011KT 00/M03 A3037 RMK A01 T00021025  RH  083%=      5-min Rain = 0
KGHS 100355Z 31011KT 00/M03 A3037 RMK A01 T00011025  RH  083%=      5-min Rain = 0
KGHS 100400Z 31010KT 00/03 A3037 RMK A01 T00000-25  RH  084%=      5-min Rain = 0
KGHS 100405Z 31010KT M00/M03 A3037 RMK A01 T10011026  RH  084%=      5-min Rain = 0
KGHS 100410Z 31010KT M00/M03 A3037 RMK A01 T10021026  RH  084%=      5-min Rain = 0
KGHS 100415Z 31010KT M00/M03 A3037 RMK A01 T10021027  RH  084%=      5-min Rain = 0
KGHS 100420Z 31010KT M00/M03 A3037 RMK A01 T10021029  RH  083%=      5-min Rain = 0
KGHS 100425Z 31008KT M00/M03 A3037 RMK A01 T10021031  RH  081%=      5-min Rain = 0
KGHS 100430Z 31009KT M00/M03 A3037 RMK A01 T10021032  RH  080%=      5-min Rain = 0
KGHS 100435Z 31008KT M00/M03 A3037 RMK A01 T10021034  RH  080%=      5-min Rain = 0
KGHS 100440Z 30007KT M00/M03 A3037 RMK A01 T10031034  RH  080%=      5-min Rain = 0
KGHS 100445Z 31008KT M00/M03 A3037 RMK A01 T10031034  RH  080%=      5-min Rain = 0
KGHS 100450Z 31009KT M00/M04 A3037 RMK A01 T10011035  RH  079%=      5-min Rain = 0
KGHS 100455Z 31008KT 00/03 A3037 RMK A01 T00-00-34  RH  078%=      5-min Rain = 0
KGHS 100500Z 31008KT 00/03 A3037 RMK A01 T00-00-33  RH  079%=      5-min Rain = 0
KGHS 100505Z 31009KT M00/M03 A3037 RMK A01 T10011031  RH  081%=      5-min Rain = 0
KGHS 100510Z 31009KT 00/03 A3038 RMK A01 T00-00-30  RH  081%=      5-min Rain = 0
KGHS 100515Z 31010KT 00/03 A3037 RMK A01 T00-00-29  RH  081%=      5-min Rain = 0
KGHS 100520Z 31010KT 00/03 A3037 RMK A01 T00-00-28  RH  082%=      5-min Rain = 0
KGHS 100525Z 31010KT M00/M03 A3037 RMK A01 T10011028  RH  082%=      5-min Rain = 0
KGHS 100530Z 31010KT 00/03 A3037 RMK A01 T00000-28  RH  082%=      5-min Rain = 0
KGHS 100535Z 32010KT 00/03 A3037 RMK A01 T00-00-28  RH  082%=      5-min Rain = 0
KGHS 100540Z 31011KT 00/M03 A3037 RMK A01 T00011026  RH  083%=      5-min Rain = 0
KGHS 100545Z 31010KT 00/M03 A3037 RMK A01 T00011025  RH  083%=      5-min Rain = 0
KGHS 100550Z 31010KT 00/03 A3037 RMK A01 T00-00-25  RH  084%=      5-min Rain = 0
KGHS 100555Z 30010KT 00/M03 A3037 RMK A01 T00011025  RH  083%=      5-min Rain = 0

Page generated in 0.0213 seconds.